Aeroporto :
LOGIN :

Iscrizione | Disclaimer

   EN    FR    IT 

 










Sommario :    VFR   VFR Marginale   IFR   IFR Intensivo   IFR Molto Intensivo
Visibilità : 
Base nubi : 
>= 8 km
>= 3000ft
5 / 8 km
1000 / 3000 ft
1500m / 5 km
500 / 1000 ft
800 / 1500m
200 / 500 ft
< 800m
< 200 ft
Simboli :   Temporali  Nebbia  Neve Forte  Precipitazioni Forti  Vento > 20 kt
SIGMETs :   Varie  Temporali  Ghiacco  Turbolenza  Onda orograficha  Ceneri Vulcaniche






- Altitudine del aeroporto : 412 ft
- Codice IATA : KGS


LGKO - Ippokratis

ULTIMO METAR :
  • 310120Z VRB03KT 9999 FEW020 18/15 Q1016

METARs OBSOLETI :
  • 310050Z VRB02KT 9999 FEW020 18/15 Q1016
  • 310020Z VRB02KT 9999 FEW020 18/14 Q1016
  • 302350Z VRB02KT 9999 FEW020 18/14 Q1016
  • 302320Z 00000KT 9999 FEW020 18/15 Q1016
  • 302250Z 00000KT 9999 FEW020 18/15 Q1016

TAF TAF LGKO
Valido dal 31 a 00 ore il 01 a 00 ore UTC


302300Z 3100/3124 VRB05KT 9999 FEW020
BECMG 3106/3108 20010KT
PROB30
TEMPO 3112/3115 5000 SHRA FEW018TCU BKN020 BKN050



MetMap, La meteo Aeronautica in un colpo d'occhio ! - Copyright ORBIFLY Dicembre 2007 - Disclaimer

ORBIFLY MET'MAP TEAM :

Programmazione e sviluppo : Alexandra Zaïnal
Concezione : Baudouin d'Aumeries
Aiuto per la programmazione : Marc-Olivier Méhu
Supporto tecnico e logistico : Manuel Goepfert
Aiuto per la traduzione : Arnaldo La Scala

Contatto : metmap@orbifly.com




FONTI E CREDITI :

   NOAA